Agnew, Nebraska
Current Conditions -  °F | °C
As of 4:54 AM on Tuesday 21 Oct 2014 (Local Time) from KLNK Reporting Station
Clear Clear  
Wind Chill: 38°   Ceiling: Unl
Heat Index: 38°   Visibility: 10mi
Dew Point: 35°   Wind: 3mph
Humidity: 89%   Direction: 340°NNW
Pressure: 30.11"   Gusts: NA
Location:  40.9964°N, 96.8004°W
Report Text: KLNK 210954Z 34003KT 10SM CLR 03/02 A3011 RMK AO2 SLP194 T00330017
Loading
Personal Weather Stations






























Interactive Weather Map New forecast layout! Learn more

10-Day Weather Forecast

Advertisements
Track Severe Weather on mobile